Los Ralos, Argentina
Current Conditions -  °F | °C
As of 1:00 PM on Sunday 23 Nov 2014 (Local Time) from SANT Reporting Station
Clear Clear  
Wind Chill: 32°   Ceiling: Unl
Heat Index: 32°   Visibility: 6mi
Dew Point: 15°   Wind: 8mph
Humidity: 36%   Direction: 50°NE
Pressure: 29.8"   Gusts: NA
Location:  26.88°S, 64.98°W
Report Text: SANT 231600Z 05007KT CAVOK 32/15 Q1009
Loading
Personal Weather Stations






























Interactive Weather Map New forecast layout! Learn more

10-Day Weather Forecast

Advertisements
Track Severe Weather on mobile